Time;durP1;ratioP1;P1;durP2;ratioP2;P2;SDS_P1;SDS_P2;PMS_P1;PMS_P2;Temp;Humidity;BMP_temperature;BMP_pressure;BME280_temperature;BME280_humidity;BME280_pressure;Samples;Min_cycle;Max_cycle;Signal;HPM_P1;HPM_P2
2023/11/04 00:01:16;;;;;;;4.20;3.80;;;9.20;99.90;;;;;;5085780;28;20184;-59
2023/11/04 00:03:51;;;;;;;4.40;3.83;;;9.30;99.90;;;;;;5085166;28;20317;-59
2023/11/04 00:06:20;;;;;;;8.20;4.17;;;9.20;99.90;;;;;;5086341;28;20277;-59
2023/11/04 00:08:50;;;;;;;6.23;4.23;;;9.20;99.90;;;;;;5086804;28;20253;-59
2023/11/04 00:11:19;;;;;;;9.30;4.30;;;9.20;99.90;;;;;;5084310;28;20212;-59
2023/11/04 00:13:47;;;;;;;4.50;4.10;;;9.10;99.90;;;;;;5089011;28;20187;-59
2023/11/04 00:16:15;;;;;;;4.17;3.87;;;9.10;99.90;;;;;;5082848;28;20211;-60
2023/11/04 00:18:44;;;;;;;6.70;4.00;;;9.10;99.90;;;;;;5090447;28;20717;-59
2023/11/04 00:21:13;;;;;;;6.23;3.80;;;9.10;99.90;;;;;;5085032;28;20233;-59
2023/11/04 00:23:42;;;;;;;6.50;3.93;;;9.10;99.90;;;;;;5093235;28;20276;-58
2023/11/04 00:26:11;;;;;;;3.90;3.70;;;9.10;99.90;;;;;;5090703;28;20226;-59
2023/11/04 00:28:40;;;;;;;5.53;3.97;;;9.20;99.90;;;;;;5088695;28;20176;-57
2023/11/04 00:31:08;;;;;;;6.00;3.57;;;9.20;99.90;;;;;;5087861;28;20194;-59
2023/11/04 00:33:37;;;;;;;7.30;4.03;;;9.20;99.90;;;;;;5088080;28;20216;-59
2023/11/04 00:36:06;;;;;;;3.63;3.33;;;9.30;99.90;;;;;;5089229;28;20223;-59
2023/11/04 00:38:35;;;;;;;6.07;3.60;;;9.30;99.90;;;;;;5086011;28;20251;-59
2023/11/04 00:41:05;;;;;;;4.43;3.60;;;9.40;99.90;;;;;;5090022;28;20219;-59
2023/11/04 00:43:36;;;;;;;3.83;3.47;;;9.40;99.90;;;;;;5090580;28;20195;-58
2023/11/04 00:46:04;;;;;;;4.33;3.60;;;9.40;99.90;;;;;;5083776;28;20235;-58
2023/11/04 00:48:33;;;;;;;5.43;3.27;;;9.40;99.90;;;;;;5087766;28;20223;-59
2023/11/04 00:51:04;;;;;;;4.37;3.20;;;9.50;99.90;;;;;;5090240;28;20223;-59
2023/11/04 00:53:32;;;;;;;5.00;3.67;;;9.50;99.90;;;;;;5089706;28;20222;-59
2023/11/04 00:56:01;;;;;;;3.70;3.37;;;9.50;99.90;;;;;;5090547;28;20234;-58
2023/11/04 00:58:29;;;;;;;5.73;3.50;;;9.50;99.90;;;;;;5091104;28;20184;-59
2023/11/04 01:00:58;;;;;;;4.40;3.30;;;9.50;99.90;;;;;;5088101;28;20220;-59
2023/11/04 01:03:27;;;;;;;3.77;3.33;;;9.50;99.90;;;;;;5084971;28;20227;-59
2023/11/04 01:05:55;;;;;;;3.60;3.37;;;9.40;99.90;;;;;;5085486;28;20226;-59
2023/11/04 01:08:23;;;;;;;3.60;3.30;;;9.40;99.90;;;;;;5087456;28;20689;-59
2023/11/04 01:10:51;;;;;;;4.50;3.97;;;9.30;99.90;;;;;;5087895;28;20195;-59
2023/11/04 01:13:20;;;;;;;4.03;3.70;;;9.30;99.90;;;;;;5087583;28;20649;-58
2023/11/04 01:15:48;;;;;;;6.53;3.97;;;9.20;99.90;;;;;;5084266;28;20215;-59
2023/11/04 01:18:19;;;;;;;4.63;3.90;;;9.20;99.90;;;;;;5086298;28;20693;-59
2023/11/04 01:20:48;;;;;;;5.00;3.77;;;9.20;99.90;;;;;;5085334;28;20224;-59
2023/11/04 01:23:16;;;;;;;4.73;3.70;;;9.20;99.90;;;;;;5089133;28;20309;-59
2023/11/04 01:25:45;;;;;;;6.67;3.60;;;9.20;99.90;;;;;;5092152;28;20196;-60
2023/11/04 01:28:13;;;;;;;5.27;4.33;;;9.20;99.90;;;;;;5082303;28;20227;-59
2023/11/04 01:30:41;;;;;;;5.90;4.20;;;9.20;99.90;;;;;;5090095;28;20231;-58
2023/11/04 01:33:10;;;;;;;7.97;4.20;;;9.10;99.90;;;;;;5094005;28;20219;-59
2023/11/04 01:35:40;;;;;;;8.77;4.77;;;9.20;99.90;;;;;;5089098;28;20215;-59
2023/11/04 01:38:08;;;;;;;6.17;4.03;;;9.20;99.90;;;;;;5081622;28;20222;-59
2023/11/04 01:40:36;;;;;;;6.50;4.20;;;9.20;99.90;;;;;;5074199;28;20282;-59
2023/11/04 01:43:04;;;;;;;5.43;3.87;;;9.20;99.90;;;;;;5080419;28;20195;-59
2023/11/04 01:45:32;;;;;;;5.90;4.00;;;9.20;99.90;;;;;;5073651;28;20230;-60
2023/11/04 01:48:02;;;;;;;7.57;4.00;;;9.20;99.90;;;;;;5086156;28;20624;-59
2023/11/04 01:50:30;;;;;;;5.57;3.90;;;9.20;99.90;;;;;;5093653;28;20225;-58
2023/11/04 01:53:01;;;;;;;6.70;3.77;;;9.20;99.90;;;;;;5083039;28;20728;-59
2023/11/04 01:55:29;;;;;;;9.67;3.80;;;9.20;99.90;;;;;;5094428;28;20188;-60
2023/11/04 01:58:00;;;;;;;8.27;3.80;;;9.30;99.90;;;;;;5093126;28;20220;-59
2023/11/04 02:00:29;;;;;;;7.50;3.53;;;9.30;99.90;;;;;;5087165;28;20276;-59
2023/11/04 02:02:58;;;;;;;4.30;3.33;;;9.30;99.90;;;;;;5074920;28;20226;-59
2023/11/04 02:05:27;;;;;;;6.93;3.70;;;9.30;99.90;;;;;;5089377;28;20352;-58
2023/11/04 02:07:55;;;;;;;7.37;3.47;;;9.20;99.90;;;;;;5087124;28;20625;-59
2023/11/04 02:10:25;;;;;;;7.70;3.50;;;9.20;99.90;;;;;;5067307;28;20647;-59
2023/11/04 02:12:53;;;;;;;13.17;4.20;;;9.30;99.90;;;;;;5092860;28;20219;-59
2023/11/04 02:15:22;;;;;;;6.63;3.67;;;9.30;99.90;;;;;;5090164;28;20269;-59
2023/11/04 02:17:51;;;;;;;5.53;3.40;;;9.30;99.90;;;;;;5085974;28;20216;-59
2023/11/04 02:20:21;;;;;;;8.17;3.80;;;9.30;99.90;;;;;;5082215;28;20610;-59
2023/11/04 02:22:52;;;;;;;8.90;3.40;;;9.30;99.90;;;;;;5091924;28;20191;-59
2023/11/04 02:25:21;;;;;;;6.53;3.30;;;9.30;99.90;;;;;;5084837;28;20187;-59
2023/11/04 02:28:08;;;;;;;8.00;3.40;;;9.40;99.90;;;;;;5089683;28;20681;-59
2023/11/04 02:30:37;;;;;;;6.93;3.23;;;9.40;99.90;;;;;;5087328;28;20219;-59
2023/11/04 02:33:05;;;;;;;6.67;3.00;;;9.40;99.90;;;;;;5090451;28;20243;-59
2023/11/04 02:35:34;;;;;;;7.00;3.30;;;9.40;99.90;;;;;;5085540;28;20266;-59
2023/11/04 02:38:03;;;;;;;5.97;2.93;;;9.40;99.90;;;;;;5084739;28;20227;-59
2023/11/04 02:40:32;;;;;;;6.83;3.43;;;9.40;99.90;;;;;;5092419;28;20545;-59
2023/11/04 02:43:00;;;;;;;9.73;3.63;;;9.40;99.90;;;;;;5091592;28;20219;-59
2023/11/04 02:45:28;;;;;;;11.03;3.00;;;9.30;99.90;;;;;;5086767;28;20215;-58
2023/11/04 02:47:57;;;;;;;5.43;3.50;;;9.30;99.90;;;;;;5082637;28;20693;-59
2023/11/04 02:50:25;;;;;;;7.13;3.17;;;9.40;99.90;;;;;;5068792;28;20226;-60
2023/11/04 02:52:55;;;;;;;6.73;3.40;;;9.40;99.90;;;;;;5086910;28;20194;-59
2023/11/04 02:55:25;;;;;;;8.97;3.10;;;9.40;99.90;;;;;;5088480;28;20200;-59
2023/11/04 02:57:54;;;;;;;7.47;3.23;;;9.40;99.90;;;;;;5091532;28;20301;-59
2023/11/04 03:00:23;;;;;;;4.97;3.20;;;9.40;99.90;;;;;;5085996;28;20275;-58
2023/11/04 03:02:51;;;;;;;8.23;3.67;;;9.40;99.90;;;;;;5088555;28;20627;-59
2023/11/04 03:05:19;;;;;;;12.33;3.33;;;9.40;99.90;;;;;;5091395;28;20223;-58
2023/11/04 03:08:02;;;;;;;4.60;3.40;;;9.40;99.90;;;;;;5088723;28;20230;-58
2023/11/04 03:10:32;;;;;;;9.57;3.70;;;9.40;99.90;;;;;;5093227;28;20188;-58
2023/11/04 03:13:02;;;;;;;8.27;3.40;;;9.30;99.90;;;;;;5089625;28;20219;-58
2023/11/04 03:15:31;;;;;;;7.13;4.10;;;9.30;99.90;;;;;;5081750;28;20211;-58
2023/11/04 03:17:59;;;;;;;10.33;3.53;;;9.30;99.90;;;;;;5085814;28;20924;-58
2023/11/04 03:20:27;;;;;;;12.17;4.33;;;9.30;99.90;;;;;;5084566;28;20597;-58
2023/11/04 03:22:56;;;;;;;10.83;3.77;;;9.30;99.90;;;;;;5081732;28;20574;-59
2023/11/04 03:25:24;;;;;;;7.97;3.97;;;9.30;99.90;;;;;;5090234;28;20184;-59
2023/11/04 03:27:54;;;;;;;9.90;3.63;;;9.30;99.90;;;;;;5085385;28;20211;-59
2023/11/04 03:30:27;;;;;;;8.13;3.00;;;9.30;99.90;;;;;;5090348;28;20662;-59
2023/11/04 03:32:55;;;;;;;8.33;3.53;;;9.30;99.90;;;;;;5086996;28;20215;-59
2023/11/04 03:35:23;;;;;;;5.90;3.50;;;9.20;99.90;;;;;;5087613;28;20229;-59
2023/11/04 03:37:52;;;;;;;7.50;3.67;;;9.20;99.90;;;;;;5086836;28;20202;-58
2023/11/04 03:40:20;;;;;;;11.30;3.67;;;9.20;99.90;;;;;;5086600;28;20196;-58
2023/11/04 03:42:48;;;;;;;5.37;3.40;;;9.10;99.90;;;;;;5088013;28;20228;-59
2023/11/04 03:45:18;;;;;;;9.93;3.20;;;9.10;99.90;;;;;;5073207;28;20297;-59
2023/11/04 03:47:47;;;;;;;7.60;3.53;;;9.10;99.90;;;;;;5053483;28;20228;-59
2023/11/04 03:50:15;;;;;;;11.57;3.97;;;9.10;99.90;;;;;;5061990;28;20224;-58
2023/11/04 03:52:44;;;;;;;6.43;3.43;;;9.10;99.90;;;;;;5063470;28;20233;-59
2023/11/04 03:55:12;;;;;;;10.03;3.73;;;9.10;99.90;;;;;;5068935;28;20188;-59
2023/11/04 03:57:40;;;;;;;10.80;4.33;;;9.00;99.90;;;;;;5060161;28;20219;-59
2023/11/04 04:00:10;;;;;;;9.60;3.10;;;9.00;99.90;;;;;;5060787;28;20240;-59
2023/11/04 04:02:40;;;;;;;11.27;3.37;;;8.90;99.90;;;;;;5065498;28;20306;-59
2023/11/04 04:05:09;;;;;;;11.03;3.33;;;8.90;99.90;;;;;;5070299;28;20220;-59
2023/11/04 04:07:37;;;;;;;9.13;3.33;;;8.90;99.90;;;;;;5065919;28;20189;-59
2023/11/04 04:10:06;;;;;;;5.57;3.40;;;8.90;99.90;;;;;;5071159;28;20224;-60
2023/11/04 04:12:33;;;;;;;7.30;3.30;;;8.90;99.90;;;;;;5076698;28;20208;-58
2023/11/04 04:15:02;;;;;;;11.77;3.10;;;8.80;99.90;;;;;;5085964;28;20219;-59
2023/11/04 04:17:30;;;;;;;8.83;3.13;;;8.90;99.90;;;;;;5083464;28;20220;-59
2023/11/04 04:19:59;;;;;;;6.47;3.10;;;8.90;99.90;;;;;;5089790;28;20322;-59
2023/11/04 04:22:28;;;;;;;9.27;2.90;;;8.90;99.90;;;;;;5080962;28;20222;-60
2023/11/04 04:25:15;;;;;;;8.60;3.40;;;8.90;99.90;;;;;;5087286;28;20230;-59
2023/11/04 04:27:45;;;;;;;9.23;3.20;;;8.90;99.90;;;;;;5083879;28;20215;-59
2023/11/04 04:30:13;;;;;;;8.73;3.27;;;8.90;99.90;;;;;;5082826;28;20552;-59
2023/11/04 04:32:42;;;;;;;5.33;3.07;;;8.90;99.90;;;;;;5091666;28;20225;-58
2023/11/04 04:35:12;;;;;;;10.67;2.93;;;8.80;99.90;;;;;;5084402;28;20679;-58
2023/11/04 04:37:40;;;;;;;10.07;3.33;;;8.90;99.90;;;;;;5079390;28;20220;-59
2023/11/04 04:40:09;;;;;;;10.33;3.10;;;8.80;99.90;;;;;;5085600;28;20194;-60
2023/11/04 04:42:37;;;;;;;8.87;3.13;;;8.80;99.90;;;;;;5089366;28;20237;-59
2023/11/04 04:45:07;;;;;;;9.27;3.40;;;8.80;99.90;;;;;;5089838;28;20234;-59
2023/11/04 04:47:37;;;;;;;10.10;2.80;;;8.80;99.90;;;;;;5081493;28;20219;-58
2023/11/04 04:50:06;;;;;;;8.60;2.80;;;8.80;99.90;;;;;;5088896;28;20314;-59
2023/11/04 04:52:36;;;;;;;6.23;3.20;;;8.80;99.90;;;;;;5087850;28;20196;-54
2023/11/04 04:55:04;;;;;;;11.00;3.80;;;8.80;99.90;;;;;;5082502;28;20195;-59
2023/11/04 04:57:32;;;;;;;7.97;3.30;;;8.70;99.90;;;;;;5085201;28;20222;-59
2023/11/04 05:00:01;;;;;;;14.37;3.37;;;8.60;99.90;;;;;;5056394;28;20213;-60
2023/11/04 05:02:30;;;;;;;5.03;3.00;;;8.60;99.90;;;;;;5067347;28;20224;-58
2023/11/04 05:04:58;;;;;;;9.90;3.40;;;8.60;99.90;;;;;;5068673;28;20265;-59
2023/11/04 05:07:28;;;;;;;6.07;2.93;;;8.50;99.90;;;;;;5085439;28;20188;-59
2023/11/04 05:09:58;;;;;;;7.97;3.47;;;8.50;99.90;;;;;;5087903;28;20214;-59
2023/11/04 05:12:26;;;;;;;9.67;3.30;;;8.40;99.90;;;;;;5091334;28;20298;-58
2023/11/04 05:14:55;;;;;;;8.63;3.87;;;8.40;99.90;;;;;;5060036;28;20212;-59
2023/11/04 05:17:23;;;;;;;9.40;3.70;;;8.30;99.90;;;;;;5070384;28;20314;-59
2023/11/04 05:19:55;;;;;;;7.40;3.30;;;8.30;99.90;;;;;;5071236;28;20212;-58
2023/11/04 05:22:24;;;;;;;8.90;3.40;;;8.40;99.90;;;;;;5072067;28;20180;-59
2023/11/04 05:24:56;;;;;;;7.53;3.10;;;8.40;99.90;;;;;;5059829;28;20231;-59
2023/11/04 05:27:45;;;;;;;8.53;3.40;;;8.40;99.90;;;;;;5069510;28;20556;-59
2023/11/04 05:30:16;;;;;;;8.90;3.23;;;8.50;99.90;;;;;;5067743;28;20215;-59
2023/11/04 05:32:44;;;;;;;9.03;3.00;;;8.50;99.90;;;;;;5078922;28;20215;-60
2023/11/04 05:35:12;;;;;;;8.50;3.07;;;8.50;99.90;;;;;;5092746;28;20298;-59
2023/11/04 05:37:40;;;;;;;8.20;3.07;;;8.50;99.90;;;;;;5085759;28;20188;-58
2023/11/04 05:40:11;;;;;;;13.33;3.40;;;8.40;99.90;;;;;;5085168;28;20200;-59
2023/11/04 05:42:39;;;;;;;8.77;3.13;;;8.50;99.90;;;;;;5073318;28;20235;-59
2023/11/04 05:45:08;;;;;;;12.37;3.50;;;8.50;99.90;;;;;;5072161;28;20261;-59
2023/11/04 05:47:36;;;;;;;5.40;2.93;;;8.40;99.90;;;;;;5062732;28;20228;-59
2023/11/04 05:50:07;;;;;;;9.00;3.30;;;8.40;99.90;;;;;;5068406;28;20230;-59
2023/11/04 05:52:36;;;;;;;7.47;3.10;;;8.40;99.90;;;;;;5076286;28;20200;-59
2023/11/04 05:55:05;;;;;;;7.63;3.40;;;8.40;99.90;;;;;;5089844;28;20196;-59
2023/11/04 05:57:34;;;;;;;16.27;3.70;;;8.40;99.90;;;;;;5089447;28;20668;-59
2023/11/04 06:00:11;;;;;;;6.33;3.07;;;8.40;99.90;;;;;;5082967;28;20222;-60
2023/11/04 06:02:39;;;;;;;7.27;3.63;;;8.40;99.90;;;;;;5083177;28;20279;-59
2023/11/04 06:05:08;;;;;;;10.10;3.70;;;8.40;99.90;;;;;;5086992;28;20219;-60
2023/11/04 06:07:39;;;;;;;7.07;3.80;;;8.40;99.90;;;;;;5086015;28;20198;-59
2023/11/04 06:10:09;;;;;;;7.17;3.60;;;8.40;99.90;;;;;;5089475;28;20195;-59
2023/11/04 06:12:39;;;;;;;6.57;3.30;;;8.50;99.90;;;;;;5073260;28;20274;-60
2023/11/04 06:15:08;;;;;;;5.33;3.33;;;8.50;99.90;;;;;;5087892;28;20221;-60
2023/11/04 06:17:36;;;;;;;12.40;3.30;;;8.60;99.90;;;;;;5088835;28;20227;-59
2023/11/04 06:20:06;;;;;;;14.03;3.53;;;8.60;99.90;;;;;;5086263;28;20224;-60
2023/11/04 06:22:34;;;;;;;16.87;3.40;;;8.60;99.90;;;;;;5090010;28;20230;-59
2023/11/04 06:25:02;;;;;;;11.00;3.63;;;8.50;99.90;;;;;;5091760;28;20553;-59
2023/11/04 06:27:34;;;;;;;8.03;3.40;;;8.50;99.90;;;;;;5088965;28;20233;-59
2023/11/04 06:30:05;;;;;;;7.23;3.40;;;8.50;99.90;;;;;;5081195;28;20318;-60
2023/11/04 06:32:33;;;;;;;13.63;3.23;;;8.50;99.90;;;;;;5086186;28;20222;-59
2023/11/04 06:35:02;;;;;;;7.37;3.40;;;8.40;99.90;;;;;;5082853;28;20623;-59
2023/11/04 06:37:30;;;;;;;13.07;3.70;;;8.40;99.90;;;;;;5067877;28;20191;-59
2023/11/04 06:40:00;;;;;;;8.57;2.97;;;8.40;99.90;;;;;;5092258;28;20219;-59
2023/11/04 06:42:31;;;;;;;10.63;3.70;;;8.30;99.90;;;;;;5085018;28;20215;-58
2023/11/04 06:44:59;;;;;;;12.77;3.63;;;8.30;99.90;;;;;;5086930;28;20675;-58
2023/11/04 06:47:29;;;;;;;14.83;3.77;;;8.30;99.90;;;;;;5083932;28;20218;-58
2023/11/04 06:49:57;;;;;;;10.10;3.63;;;8.30;99.90;;;;;;5088241;28;20219;-58
2023/11/04 06:52:26;;;;;;;8.83;3.00;;;8.30;99.90;;;;;;5087457;28;20203;-59
2023/11/04 06:54:54;;;;;;;6.87;3.10;;;8.20;99.90;;;;;;5082958;28;20207;-59
2023/11/04 06:57:22;;;;;;;8.63;3.40;;;8.30;99.90;;;;;;5090525;28;20222;-59
2023/11/04 06:59:51;;;;;;;16.07;3.67;;;8.30;99.90;;;;;;5081575;28;20226;-58
2023/11/04 07:02:20;;;;;;;13.50;3.20;;;8.20;99.90;;;;;;5085524;28;20211;-59
2023/11/04 07:04:50;;;;;;;9.90;3.20;;;8.20;99.90;;;;;;5081654;28;20226;-59
2023/11/04 07:07:18;;;;;;;9.17;3.70;;;8.20;99.90;;;;;;5089648;28;20194;-59
2023/11/04 07:09:48;;;;;;;9.10;3.10;;;8.20;99.90;;;;;;5082770;28;20220;-59
2023/11/04 07:12:17;;;;;;;13.90;4.13;;;8.20;99.90;;;;;;5087666;28;20222;-59
2023/11/04 07:14:46;;;;;;;9.70;3.30;;;8.20;99.90;;;;;;5086440;28;20301;-58
2023/11/04 07:17:14;;;;;;;9.63;3.53;;;8.20;99.90;;;;;;5080309;28;20729;-59
2023/11/04 07:19:42;;;;;;;7.90;3.70;;;8.20;99.90;;;;;;5085861;28;20184;-59
2023/11/04 07:22:17;;;;;;;12.77;3.10;;;8.20;99.90;;;;;;5079074;28;20237;-59
2023/11/04 07:24:46;;;;;;;10.03;3.70;;;8.30;99.90;;;;;;5087197;28;20239;-59
2023/11/04 07:27:16;;;;;;;14.13;3.70;;;8.30;99.90;;;;;;5085075;28;20219;-59
2023/11/04 07:29:45;;;;;;;10.93;3.60;;;8.30;99.90;;;;;;5086899;28;21088;-59
2023/11/04 07:32:13;;;;;;;7.23;3.23;;;8.30;99.90;;;;;;5088214;28;20282;-59
2023/11/04 07:34:41;;;;;;;6.27;3.47;;;8.40;99.90;;;;;;5083636;28;20198;-58
2023/11/04 07:37:10;;;;;;;9.93;3.40;;;8.40;99.90;;;;;;5091884;28;21005;-60
2023/11/04 07:39:40;;;;;;;10.43;3.27;;;8.40;99.90;;;;;;5086835;28;20211;-59
2023/11/04 07:42:10;;;;;;;12.30;4.17;;;8.50;99.90;;;;;;5087325;28;20638;-60
2023/11/04 07:44:39;;;;;;;7.73;3.10;;;8.50;99.90;;;;;;5083770;28;20218;-59
2023/11/04 07:47:07;;;;;;;10.53;3.07;;;8.60;99.90;;;;;;5084278;28;20218;-59
2023/11/04 07:49:35;;;;;;;9.73;3.10;;;8.60;99.90;;;;;;5089512;28;20195;-59
2023/11/04 07:52:06;;;;;;;9.97;3.47;;;8.70;99.90;;;;;;5080056;28;20218;-59
2023/11/04 07:54:34;;;;;;;9.17;2.77;;;8.70;99.90;;;;;;5086433;28;20273;-59
2023/11/04 07:57:05;;;;;;;7.47;2.97;;;8.80;99.90;;;;;;5090964;28;20223;-59
2023/11/04 07:59:34;;;;;;;10.63;3.33;;;8.80;99.90;;;;;;5087672;28;20207;-59
2023/11/04 08:02:03;;;;;;;6.30;2.87;;;8.90;99.90;;;;;;5088361;28;20302;-59
2023/11/04 08:04:31;;;;;;;10.87;2.77;;;8.90;99.90;;;;;;5086228;28;20246;-59
2023/11/04 08:06:59;;;;;;;4.97;2.37;;;9.00;99.90;;;;;;5093342;28;20213;-59
2023/11/04 08:09:29;;;;;;;6.20;2.50;;;9.00;99.90;;;;;;5087054;28;20303;-59
2023/11/04 08:11:57;;;;;;;3.93;2.53;;;9.00;99.90;;;;;;5091315;28;20230;-59
2023/11/04 08:14:27;;;;;;;4.87;1.97;;;9.10;99.90;;;;;;5090251;28;20215;-59
2023/11/04 08:16:55;;;;;;;9.37;2.43;;;9.20;99.90;;;;;;5084674;28;20214;-59
2023/11/04 08:19:23;;;;;;;3.53;2.53;;;9.20;99.90;;;;;;5083319;28;20198;-58
2023/11/04 08:21:51;;;;;;;6.80;2.20;;;9.30;99.90;;;;;;5092723;28;20218;-58
2023/11/04 08:24:19;;;;;;;6.03;2.40;;;9.30;99.90;;;;;;5070407;28;20223;-59
2023/11/04 08:26:47;;;;;;;9.00;2.60;;;9.30;99.90;;;;;;5091117;28;20218;-59
2023/11/04 08:29:16;;;;;;;8.63;3.00;;;9.40;99.90;;;;;;5090362;28;20227;-59
2023/11/04 08:31:45;;;;;;;7.47;2.33;;;9.40;99.90;;;;;;5091305;28;20602;-59
2023/11/04 08:34:14;;;;;;;10.13;2.57;;;9.40;99.90;;;;;;5091481;28;20247;-59
2023/11/04 08:36:43;;;;;;;3.43;2.03;;;9.50;99.90;;;;;;5087008;28;20310;-59
2023/11/04 08:39:11;;;;;;;7.40;2.37;;;9.50;99.90;;;;;;5091739;28;20697;-59
2023/11/04 08:41:40;;;;;;;6.70;2.20;;;9.50;99.90;;;;;;5089767;28;20215;-59
2023/11/04 08:44:08;;;;;;;4.73;2.03;;;9.60;99.90;;;;;;5091607;28;20223;-59
2023/11/04 08:46:36;;;;;;;11.20;2.40;;;9.60;99.90;;;;;;5086818;28;20207;-59
2023/11/04 08:49:06;;;;;;;8.60;2.27;;;9.50;99.90;;;;;;5082428;28;20277;-60
2023/11/04 08:51:35;;;;;;;9.77;2.43;;;9.30;99.90;;;;;;5090637;28;20231;-59
2023/11/04 08:54:05;;;;;;;8.50;2.43;;;9.20;99.90;;;;;;5083364;28;20273;-60
2023/11/04 08:56:33;;;;;;;12.17;2.73;;;9.10;99.90;;;;;;5085886;28;20223;-60
2023/11/04 08:59:02;;;;;;;6.23;2.43;;;9.00;99.90;;;;;;5084540;28;20677;-60
2023/11/04 09:01:31;;;;;;;7.83;2.20;;;8.90;99.90;;;;;;5089918;28;20195;-60
2023/11/04 09:04:00;;;;;;;9.07;2.63;;;8.80;99.90;;;;;;5087030;28;20227;-60
2023/11/04 09:06:35;;;;;;;6.33;2.47;;;8.80;99.90;;;;;;5077113;28;20222;-60
2023/11/04 09:09:06;;;;;;;5.67;2.30;;;8.70;99.90;;;;;;5082806;28;20239;-60
2023/11/04 09:11:34;;;;;;;9.73;2.93;;;8.70;99.90;;;;;;5084620;28;20231;-60
2023/11/04 09:14:04;;;;;;;5.13;2.30;;;8.60;99.90;;;;;;5084415;28;20744;-59
2023/11/04 09:16:32;;;;;;;6.63;2.60;;;8.60;99.90;;;;;;5068817;28;20223;-60
2023/11/04 09:19:01;;;;;;;11.80;2.63;;;8.60;99.90;;;;;;5067250;28;20228;-59
2023/11/04 09:21:29;;;;;;;8.63;2.63;;;8.60;99.90;;;;;;5084744;28;20219;-60
2023/11/04 09:23:59;;;;;;;10.37;3.13;;;8.60;99.90;;;;;;5086424;28;20814;-60
2023/11/04 09:26:29;;;;;;;9.83;3.10;;;8.50;99.90;;;;;;5084753;28;20510;-60
2023/11/04 09:29:00;;;;;;;11.17;3.10;;;8.50;99.90;;;;;;5083277;28;20578;-60
2023/11/04 09:31:29;;;;;;;7.93;3.00;;;8.50;99.90;;;;;;5086024;28;20198;-60
2023/11/04 09:34:02;;;;;;;11.70;2.60;;;8.50;99.90;;;;;;5079956;28;22099;-60
2023/11/04 09:36:31;;;;;;;7.97;2.93;;;8.50;99.90;;;;;;5083831;28;20216;-61
2023/11/04 09:39:01;;;;;;;10.50;3.03;;;8.50;99.90;;;;;;5071358;28;20212;-61
2023/11/04 09:41:30;;;;;;;9.40;2.90;;;8.50;99.90;;;;;;5064757;28;20222;-61
2023/11/04 09:44:03;;;;;;;7.33;2.53;;;8.50;99.90;;;;;;5049392;28;20226;-60
2023/11/04 09:46:33;;;;;;;10.47;2.90;;;8.50;99.90;;;;;;5065332;28;20196;-60
2023/11/04 09:49:05;;;;;;;10.23;2.37;;;8.50;99.90;;;;;;5063440;28;20665;-60
2023/11/04 09:51:34;;;;;;;13.80;2.93;;;8.50;99.90;;;;;;5065881;28;20236;-60
2023/11/04 09:54:10;;;;;;;9.80;2.77;;;8.50;99.90;;;;;;5077332;28;20227;-61
2023/11/04 09:56:40;;;;;;;12.77;2.93;;;8.50;99.90;;;;;;5079879;28;20686;-60
2023/11/04 09:59:08;;;;;;;7.57;2.63;;;8.50;99.90;;;;;;5063341;28;20690;-60
2023/11/04 10:01:36;;;;;;;15.40;2.90;;;8.50;99.90;;;;;;5061572;28;20547;-60
2023/11/04 10:04:04;;;;;;;11.50;2.93;;;8.50;99.90;;;;;;5081501;28;20685;-60
2023/11/04 10:06:33;;;;;;;10.20;2.50;;;8.50;99.90;;;;;;5075166;28;20231;-60
2023/11/04 10:09:02;;;;;;;7.77;2.40;;;8.50;99.90;;;;;;5076262;28;20223;-61
2023/11/04 10:11:35;;;;;;;7.33;2.70;;;8.60;99.90;;;;;;5081650;28;20219;-61
2023/11/04 10:14:03;;;;;;;9.07;2.53;;;8.60;99.90;;;;;;5083741;28;20227;-61
2023/11/04 10:16:31;;;;;;;7.53;2.27;;;8.60;99.90;;;;;;5077611;28;20214;-61
2023/11/04 10:19:00;;;;;;;9.70;2.37;;;8.60;99.90;;;;;;5081500;28;20224;-61
2023/11/04 10:21:29;;;;;;;12.17;2.90;;;8.50;99.90;;;;;;5084168;28;20241;-61
2023/11/04 10:23:57;;;;;;;6.30;2.17;;;8.50;99.90;;;;;;5084948;28;20251;-61
2023/11/04 10:26:27;;;;;;;7.67;2.40;;;8.50;99.90;;;;;;5066978;28;20220;-61
2023/11/04 10:28:57;;;;;;;7.90;2.10;;;8.50;99.90;;;;;;5082167;28;20227;-61
2023/11/04 10:31:26;;;;;;;10.67;2.47;;;8.50;99.90;;;;;;5079002;28;20191;-61
2023/11/04 10:34:00;;;;;;;9.23;2.77;;;8.50;99.90;;;;;;5081687;28;20589;-61
2023/11/04 10:36:30;;;;;;;5.00;2.30;;;8.40;99.90;;;;;;5078104;28;20219;-61
2023/11/04 10:39:02;;;;;;;5.80;2.03;;;8.50;99.90;;;;;;5082405;28;20306;-61
2023/11/04 10:41:35;;;;;;;8.27;2.20;;;8.50;99.90;;;;;;5083586;28;20851;-60
2023/11/04 10:44:16;;;;;;;9.20;2.27;;;8.60;99.90;;;;;;5080994;28;20224;-60
2023/11/04 10:46:53;;;;;;;6.87;2.30;;;8.60;99.90;;;;;;5081559;28;20287;-60
2023/11/04 10:49:27;;;;;;;8.03;2.10;;;8.70;99.90;;;;;;5084838;28;20226;-61
2023/11/04 10:52:03;;;;;;;8.23;2.40;;;8.70;99.90;;;;;;5081851;28;20219;-61
2023/11/04 10:54:38;;;;;;;8.40;2.07;;;8.70;99.90;;;;;;5080676;28;20218;-60
2023/11/04 10:57:14;;;;;;;8.53;2.23;;;8.70;99.90;;;;;;5083391;28;20215;-60
2023/11/04 10:59:56;;;;;;;3.97;2.00;;;8.70;99.90;;;;;;5081112;28;20591;-61
2023/11/04 11:02:27;;;;;;;11.67;2.33;;;8.70;99.90;;;;;;5080375;28;20233;-61
2023/11/04 11:04:57;;;;;;;11.93;2.10;;;8.70;99.90;;;;;;5080400;28;20235;-62
2023/11/04 11:07:25;;;;;;;7.67;2.10;;;8.70;99.90;;;;;;5076856;28;20269;-61
2023/11/04 11:09:54;;;;;;;7.37;2.17;;;8.70;99.90;;;;;;5083461;28;20220;-61
2023/11/04 11:12:24;;;;;;;8.07;1.90;;;8.70;99.90;;;;;;5080595;28;20235;-61
2023/11/04 11:14:54;;;;;;;5.90;2.00;;;8.70;99.90;;;;;;5082087;28;20223;-60
2023/11/04 11:17:31;;;;;;;2.37;1.80;;;8.70;99.90;;;;;;5079483;28;20229;-60
2023/11/04 11:20:01;;;;;;;4.70;2.20;;;8.70;99.90;;;;;;5082024;28;20220;-60
2023/11/04 11:22:30;;;;;;;5.67;3.27;;;8.70;99.90;;;;;;5085533;28;20192;-60
2023/11/04 11:24:58;;;;;;;6.10;2.10;;;8.70;99.90;;;;;;5087499;28;20242;-61
2023/11/04 11:27:27;;;;;;;5.47;2.20;;;8.70;99.90;;;;;;5078668;28;20665;-62
2023/11/04 11:30:09;;;;;;;7.63;2.20;;;8.80;99.90;;;;;;5081076;28;20219;-60
2023/11/04 11:32:38;;;;;;;5.47;2.17;;;8.80;99.90;;;;;;5080121;28;20226;-60
2023/11/04 11:35:07;;;;;;;5.07;2.13;;;8.80;99.90;;;;;;5080099;28;20287;-60
2023/11/04 11:37:36;;;;;;;4.73;1.80;;;8.80;99.90;;;;;;5083682;28;20274;-59
2023/11/04 11:40:11;;;;;;;3.77;1.83;;;8.80;99.90;;;;;;5084569;28;20264;-60
2023/11/04 11:42:40;;;;;;;4.33;1.60;;;8.90;99.90;;;;;;5085027;28;20290;-60
2023/11/04 11:45:10;;;;;;;4.20;1.80;;;8.90;99.90;;;;;;5084043;28;20219;-60
2023/11/04 11:47:39;;;;;;;2.43;1.77;;;8.90;99.90;;;;;;5085322;28;20218;-60
2023/11/04 11:50:09;;;;;;;2.20;1.67;;;9.00;99.90;;;;;;5083529;28;20231;-60
2023/11/04 11:52:37;;;;;;;1.53;1.43;;;9.00;99.90;;;;;;5085835;28;20197;-59
2023/11/04 11:55:09;;;;;;;2.00;1.50;;;9.00;99.90;;;;;;5084362;28;20207;-62
2023/11/04 11:57:38;;;;;;;1.30;1.30;;;9.10;99.90;;;;;;5086439;28;20262;-59
2023/11/04 12:00:09;;;;;;;1.33;1.30;;;9.10;99.90;;;;;;5086767;28;20224;-59
2023/11/04 12:02:40;;;;;;;1.63;1.50;;;9.10;99.90;;;;;;5083790;28;20215;-59
2023/11/04 12:05:10;;;;;;;1.30;1.30;;;9.10;99.90;;;;;;5084728;28;20554;-59
2023/11/04 12:07:39;;;;;;;2.10;1.53;;;9.20;99.90;;;;;;5083505;28;20248;-59
2023/11/04 12:10:09;;;;;;;1.33;1.33;;;9.20;99.90;;;;;;5078500;28;20191;-59
2023/11/04 12:12:38;;;;;;;1.03;1.03;;;9.30;99.90;;;;;;5085419;28;20246;-60
2023/11/04 12:15:11;;;;;;;1.13;1.13;;;9.30;99.90;;;;;;5087018;28;20226;-59
2023/11/04 12:17:40;;;;;;;1.03;1.03;;;9.30;99.90;;;;;;5083661;28;20276;-59
2023/11/04 12:20:10;;;;;;;1.27;1.20;;;9.40;99.90;;;;;;5082174;28;20224;-59
2023/11/04 12:22:39;;;;;;;1.20;1.20;;;9.40;99.90;;;;;;5083643;28;20523;-59
2023/11/04 12:25:08;;;;;;;1.80;1.10;;;9.40;99.90;;;;;;5089810;28;20184;-61
2023/11/04 12:27:46;;;;;;;1.67;1.27;;;9.50;99.90;;;;;;5084678;28;20226;-60
2023/11/04 12:30:16;;;;;;;1.23;1.23;;;9.40;99.90;;;;;;5062976;28;20253;-60
2023/11/04 12:32:47;;;;;;;1.20;1.20;;;9.50;99.90;;;;;;5082936;28;20230;-60
2023/11/04 12:35:15;;;;;;;1.30;1.30;;;9.50;99.90;;;;;;5079893;28;20230;-60
2023/11/04 12:37:45;;;;;;;1.20;1.20;;;9.60;99.90;;;;;;5082514;28;20192;-60
2023/11/04 12:40:14;;;;;;;1.20;1.20;;;9.60;99.90;;;;;;5066323;28;20779;-60
2023/11/04 12:42:43;;;;;;;1.30;1.30;;;9.60;99.90;;;;;;5083631;28;20216;-60
2023/11/04 12:45:13;;;;;;;1.50;1.10;;;9.60;99.90;;;;;;5085379;28;20219;-60
2023/11/04 12:47:41;;;;;;;1.70;1.60;;;9.70;99.90;;;;;;5070207;28;20243;-60
2023/11/04 12:50:13;;;;;;;1.70;1.60;;;9.80;99.90;;;;;;5083382;28;20215;-60
2023/11/04 12:52:44;;;;;;;1.50;1.50;;;9.80;99.90;;;;;;5080117;28;20290;-60
2023/11/04 12:55:14;;;;;;;1.90;1.30;;;9.80;99.90;;;;;;5088292;28;20208;-60
2023/11/04 12:57:42;;;;;;;1.90;1.40;;;9.90;99.90;;;;;;5072096;28;20673;-60
2023/11/04 13:00:11;;;;;;;1.27;1.27;;;10.00;99.90;;;;;;5083333;28;20657;-60
2023/11/04 13:02:39;;;;;;;1.20;1.20;;;10.10;99.90;;;;;;5085864;28;20218;-60
2023/11/04 13:05:08;;;;;;;1.10;1.10;;;10.20;99.90;;;;;;5086987;28;20228;-60
2023/11/04 13:07:39;;;;;;;1.20;1.10;;;10.20;99.90;;;;;;5079999;28;20243;-60